sensor_id;sensor_type;location;lat;lon;timestamp;P1;durP1;ratioP1;P2;durP2;ratioP2
57343;SDS011;43180;50.974;18.172;2023-07-24T00:08:12;4.00;;;1.70;;
57343;SDS011;43180;50.974;18.172;2023-07-24T00:17:54;7.00;;;2.70;;
57343;SDS011;43180;50.974;18.172;2023-07-24T00:27:36;7.50;;;4.50;;
57343;SDS011;43180;50.974;18.172;2023-07-24T00:37:19;3.40;;;1.90;;
57343;SDS011;43180;50.974;18.172;2023-07-24T00:47:03;7.00;;;3.00;;
57343;SDS011;43180;50.974;18.172;2023-07-24T00:56:47;4.80;;;3.10;;
57343;SDS011;43180;50.974;18.172;2023-07-24T01:06:30;4.80;;;3.00;;
57343;SDS011;43180;50.974;18.172;2023-07-24T01:16:22;6.00;;;3.10;;
57343;SDS011;43180;50.974;18.172;2023-07-24T01:26:19;5.00;;;2.70;;
57343;SDS011;43180;50.974;18.172;2023-07-24T01:36:03;6.60;;;2.80;;
57343;SDS011;43180;50.974;18.172;2023-07-24T01:45:47;5.00;;;2.90;;
57343;SDS011;43180;50.974;18.172;2023-07-24T01:55:29;10.80;;;3.50;;
57343;SDS011;43180;50.974;18.172;2023-07-24T02:00:20;10.00;;;4.50;;
57343;SDS011;43180;50.974;18.172;2023-07-24T02:10:02;5.20;;;2.90;;
57343;SDS011;43180;50.974;18.172;2023-07-24T02:19:46;4.50;;;2.70;;
57343;SDS011;43180;50.974;18.172;2023-07-24T02:29:30;4.30;;;2.30;;
57343;SDS011;43180;50.974;18.172;2023-07-24T02:39:17;6.30;;;2.70;;
57343;SDS011;43180;50.974;18.172;2023-07-24T02:49:00;7.80;;;3.40;;
57343;SDS011;43180;50.974;18.172;2023-07-24T02:58:45;3.70;;;2.70;;
57343;SDS011;43180;50.974;18.172;2023-07-24T03:08:33;8.00;;;3.50;;
57343;SDS011;43180;50.974;18.172;2023-07-24T03:18:19;13.60;;;3.50;;
57343;SDS011;43180;50.974;18.172;2023-07-24T03:28:02;4.80;;;3.90;;
57343;SDS011;43180;50.974;18.172;2023-07-24T03:37:44;9.60;;;3.40;;
57343;SDS011;43180;50.974;18.172;2023-07-24T03:47:28;7.30;;;3.80;;
57343;SDS011;43180;50.974;18.172;2023-07-24T03:57:10;5.60;;;3.40;;
57343;SDS011;43180;50.974;18.172;2023-07-24T04:06:52;7.00;;;3.20;;
57343;SDS011;43180;50.974;18.172;2023-07-24T04:16:35;3.00;;;2.30;;
57343;SDS011;43180;50.974;18.172;2023-07-24T04:26:17;10.40;;;3.50;;
57343;SDS011;43180;50.974;18.172;2023-07-24T04:35:59;10.10;;;4.00;;
57343;SDS011;43180;50.974;18.172;2023-07-24T04:45:42;8.00;;;3.30;;
57343;SDS011;43180;50.974;18.172;2023-07-24T04:55:25;11.60;;;4.80;;
57343;SDS011;43180;50.974;18.172;2023-07-24T05:05:07;8.50;;;3.80;;
57343;SDS011;43180;50.974;18.172;2023-07-24T05:14:50;8.10;;;4.10;;
57343;SDS011;43180;50.974;18.172;2023-07-24T05:24:33;5.80;;;3.20;;
57343;SDS011;43180;50.974;18.172;2023-07-24T05:34:15;5.90;;;3.50;;
57343;SDS011;43180;50.974;18.172;2023-07-24T05:43:58;7.60;;;3.70;;
57343;SDS011;43180;50.974;18.172;2023-07-24T05:53:40;8.10;;;4.20;;
57343;SDS011;43180;50.974;18.172;2023-07-24T06:03:23;13.50;;;4.40;;
57343;SDS011;43180;50.974;18.172;2023-07-24T06:13:13;5.20;;;3.00;;
57343;SDS011;43180;50.974;18.172;2023-07-24T06:22:56;5.00;;;2.40;;
57343;SDS011;43180;50.974;18.172;2023-07-24T06:32:38;6.20;;;3.30;;
57343;SDS011;43180;50.974;18.172;2023-07-24T06:42:20;5.20;;;3.00;;
57343;SDS011;43180;50.974;18.172;2023-07-24T06:52:03;4.30;;;2.40;;
57343;SDS011;43180;50.974;18.172;2023-07-24T07:01:45;4.50;;;2.80;;
57343;SDS011;43180;50.974;18.172;2023-07-24T07:11:28;6.70;;;2.80;;
57343;SDS011;43180;50.974;18.172;2023-07-24T07:21:10;5.90;;;3.30;;
57343;SDS011;43180;50.974;18.172;2023-07-24T07:30:53;10.30;;;3.90;;
57343;SDS011;43180;50.974;18.172;2023-07-24T07:40:37;6.10;;;3.50;;
57343;SDS011;43180;50.974;18.172;2023-07-24T07:50:21;8.30;;;3.40;;
57343;SDS011;43180;50.974;18.172;2023-07-24T08:00:12;6.30;;;3.40;;
57343;SDS011;43180;50.974;18.172;2023-07-24T08:09:59;6.10;;;2.80;;
57343;SDS011;43180;50.974;18.172;2023-07-24T08:19:40;3.20;;;2.20;;
57343;SDS011;43180;50.974;18.172;2023-07-24T08:29:27;5.60;;;3.30;;
57343;SDS011;43180;50.974;18.172;2023-07-24T08:39:09;6.70;;;3.90;;
57343;SDS011;43180;50.974;18.172;2023-07-24T08:48:55;5.60;;;3.20;;
57343;SDS011;43180;50.974;18.172;2023-07-24T09:05:58;8.10;;;3.90;;
57343;SDS011;43180;50.974;18.172;2023-07-24T09:15:50;6.40;;;4.40;;
57343;SDS011;43180;50.974;18.172;2023-07-24T09:25:36;6.60;;;3.70;;
57343;SDS011;43180;50.974;18.172;2023-07-24T09:35:30;7.80;;;4.20;;
57343;SDS011;43180;50.974;18.172;2023-07-24T09:45:44;8.00;;;3.60;;
57343;SDS011;43180;50.974;18.172;2023-07-24T09:55:30;9.50;;;4.30;;
57343;SDS011;43180;50.974;18.172;2023-07-24T10:05:17;4.70;;;3.00;;
57343;SDS011;43180;50.974;18.172;2023-07-24T10:15:00;5.70;;;3.20;;
57343;SDS011;43180;50.974;18.172;2023-07-24T10:24:57;10.70;;;5.20;;
57343;SDS011;43180;50.974;18.172;2023-07-24T10:35:35;10.80;;;4.30;;
57343;SDS011;43180;50.974;18.172;2023-07-24T10:45:23;6.60;;;3.40;;
57343;SDS011;43180;50.974;18.172;2023-07-24T10:55:07;8.70;;;4.30;;
57343;SDS011;43180;50.974;18.172;2023-07-24T11:04:50;32.80;;;3.80;;
57343;SDS011;43180;50.974;18.172;2023-07-24T11:22:32;9.80;;;4.60;;
57343;SDS011;43180;50.974;18.172;2023-07-24T11:32:22;9.50;;;4.60;;
57343;SDS011;43180;50.974;18.172;2023-07-24T11:42:05;10.70;;;4.40;;
57343;SDS011;43180;50.974;18.172;2023-07-24T11:51:53;7.50;;;3.40;;
57343;SDS011;43180;50.974;18.172;2023-07-24T12:01:48;19.60;;;5.20;;
57343;SDS011;43180;50.974;18.172;2023-07-24T12:11:32;6.40;;;3.20;;
57343;SDS011;43180;50.974;18.172;2023-07-24T12:21:15;9.10;;;5.40;;
57343;SDS011;43180;50.974;18.172;2023-07-24T12:30:59;5.80;;;2.00;;
57343;SDS011;43180;50.974;18.172;2023-07-24T12:40:44;9.80;;;4.70;;
57343;SDS011;43180;50.974;18.172;2023-07-24T12:50:26;11.20;;;4.60;;
57343;SDS011;43180;50.974;18.172;2023-07-24T13:00:10;7.40;;;4.50;;
57343;SDS011;43180;50.974;18.172;2023-07-24T13:09:54;9.20;;;4.30;;
57343;SDS011;43180;50.974;18.172;2023-07-24T13:19:36;6.90;;;4.00;;
57343;SDS011;43180;50.974;18.172;2023-07-24T13:29:18;8.80;;;5.00;;
57343;SDS011;43180;50.974;18.172;2023-07-24T13:39:01;10.20;;;5.40;;
57343;SDS011;43180;50.974;18.172;2023-07-24T13:48:45;6.00;;;3.80;;
57343;SDS011;43180;50.974;18.172;2023-07-24T13:58:28;9.40;;;5.20;;
57343;SDS011;43180;50.974;18.172;2023-07-24T14:08:10;10.20;;;4.40;;
57343;SDS011;43180;50.974;18.172;2023-07-24T14:17:54;9.00;;;5.20;;
57343;SDS011;43180;50.974;18.172;2023-07-24T14:27:36;10.80;;;5.50;;
57343;SDS011;43180;50.974;18.172;2023-07-24T14:37:19;10.40;;;4.30;;
57343;SDS011;43180;50.974;18.172;2023-07-24T14:47:02;7.10;;;4.10;;
57343;SDS011;43180;50.974;18.172;2023-07-24T14:56:45;7.70;;;4.70;;
57343;SDS011;43180;50.974;18.172;2023-07-24T15:06:27;8.50;;;3.80;;
57343;SDS011;43180;50.974;18.172;2023-07-24T15:16:16;9.10;;;4.90;;
57343;SDS011;43180;50.974;18.172;2023-07-24T15:25:59;11.70;;;5.20;;
57343;SDS011;43180;50.974;18.172;2023-07-24T15:35:42;9.00;;;4.90;;
57343;SDS011;43180;50.974;18.172;2023-07-24T15:45:24;8.10;;;5.00;;
57343;SDS011;43180;50.974;18.172;2023-07-24T15:55:07;7.50;;;5.00;;
57343;SDS011;43180;50.974;18.172;2023-07-24T16:04:50;8.30;;;5.00;;
57343;SDS011;43180;50.974;18.172;2023-07-24T16:14:36;9.30;;;5.00;;
57343;SDS011;43180;50.974;18.172;2023-07-24T16:24:20;12.10;;;6.10;;
57343;SDS011;43180;50.974;18.172;2023-07-24T16:34:04;10.50;;;6.50;;
57343;SDS011;43180;50.974;18.172;2023-07-24T16:43:55;17.20;;;6.40;;
57343;SDS011;43180;50.974;18.172;2023-07-24T16:53:41;12.50;;;6.00;;
57343;SDS011;43180;50.974;18.172;2023-07-24T17:03:24;10.30;;;6.10;;
57343;SDS011;43180;50.974;18.172;2023-07-24T17:13:09;10.30;;;5.40;;
57343;SDS011;43180;50.974;18.172;2023-07-24T17:22:52;7.40;;;4.90;;
57343;SDS011;43180;50.974;18.172;2023-07-24T17:32:36;13.10;;;5.30;;
57343;SDS011;43180;50.974;18.172;2023-07-24T17:42:22;11.10;;;4.50;;
57343;SDS011;43180;50.974;18.172;2023-07-24T17:52:04;8.40;;;4.30;;
57343;SDS011;43180;50.974;18.172;2023-07-24T18:01:49;4.80;;;3.30;;
57343;SDS011;43180;50.974;18.172;2023-07-24T18:11:31;8.50;;;4.70;;
57343;SDS011;43180;50.974;18.172;2023-07-24T18:21:14;7.60;;;4.00;;
57343;SDS011;43180;50.974;18.172;2023-07-24T18:30:57;10.70;;;4.90;;
57343;SDS011;43180;50.974;18.172;2023-07-24T18:40:40;8.50;;;5.20;;
57343;SDS011;43180;50.974;18.172;2023-07-24T18:50:25;12.10;;;5.00;;
57343;SDS011;43180;50.974;18.172;2023-07-24T19:00:07;7.80;;;4.80;;
57343;SDS011;43180;50.974;18.172;2023-07-24T19:09:50;8.90;;;5.30;;
57343;SDS011;43180;50.974;18.172;2023-07-24T19:19:36;10.00;;;5.60;;
57343;SDS011;43180;50.974;18.172;2023-07-24T19:29:20;13.10;;;5.50;;
57343;SDS011;43180;50.974;18.172;2023-07-24T19:39:06;10.90;;;5.40;;
57343;SDS011;43180;50.974;18.172;2023-07-24T19:48:49;9.80;;;4.80;;
57343;SDS011;43180;50.974;18.172;2023-07-24T19:58:31;9.80;;;5.40;;
57343;SDS011;43180;50.974;18.172;2023-07-24T20:08:25;6.90;;;4.10;;
57343;SDS011;43180;50.974;18.172;2023-07-24T20:18:09;11.40;;;6.50;;
57343;SDS011;43180;50.974;18.172;2023-07-24T20:27:52;12.70;;;5.70;;
57343;SDS011;43180;50.974;18.172;2023-07-24T20:37:34;15.10;;;3.80;;
57343;SDS011;43180;50.974;18.172;2023-07-24T20:47:20;10.70;;;6.30;;
57343;SDS011;43180;50.974;18.172;2023-07-24T20:57:07;18.40;;;9.40;;
57343;SDS011;43180;50.974;18.172;2023-07-24T21:06:49;11.20;;;6.70;;
57343;SDS011;43180;50.974;18.172;2023-07-24T21:16:33;8.30;;;4.60;;
57343;SDS011;43180;50.974;18.172;2023-07-24T21:26:16;15.00;;;4.10;;
57343;SDS011;43180;50.974;18.172;2023-07-24T21:35:59;16.90;;;7.60;;
57343;SDS011;43180;50.974;18.172;2023-07-24T21:45:42;13.70;;;7.10;;
57343;SDS011;43180;50.974;18.172;2023-07-24T21:55:27;11.10;;;5.50;;
57343;SDS011;43180;50.974;18.172;2023-07-24T22:05:11;20.20;;;8.00;;
57343;SDS011;43180;50.974;18.172;2023-07-24T22:14:54;8.30;;;4.50;;
57343;SDS011;43180;50.974;18.172;2023-07-24T22:24:38;12.30;;;5.40;;
57343;SDS011;43180;50.974;18.172;2023-07-24T22:34:21;11.00;;;5.30;;
57343;SDS011;43180;50.974;18.172;2023-07-24T22:44:04;12.20;;;5.30;;
57343;SDS011;43180;50.974;18.172;2023-07-24T22:53:47;13.70;;;6.70;;
57343;SDS011;43180;50.974;18.172;2023-07-24T23:03:51;15.50;;;6.60;;
57343;SDS011;43180;50.974;18.172;2023-07-24T23:13:34;11.90;;;3.90;;
57343;SDS011;43180;50.974;18.172;2023-07-24T23:23:16;10.20;;;5.00;;
57343;SDS011;43180;50.974;18.172;2023-07-24T23:33:06;9.60;;;4.20;;
57343;SDS011;43180;50.974;18.172;2023-07-24T23:42:48;11.10;;;5.20;;
57343;SDS011;43180;50.974;18.172;2023-07-24T23:52:30;9.90;;;5.70;;
